Time;durP1;ratioP1;P1;durP2;ratioP2;P2;SDS_P1;SDS_P2;PMS_P1;PMS_P2;Temp;Humidity;BMP_temperature;BMP_pressure;BME280_temperature;BME280_humidity;BME280_pressure;Samples;Min_cycle;Max_cycle;Signal;HPM_P1;HPM_P2
2022/10/11 06:40:38;;;;;;;25.65;14.40;;;;;;;11.69;100.00;99688.03;5183166;27;20748;-76
2022/10/11 06:43:04;;;;;;;32.00;14.00;;;;;;;11.89;100.00;99693.00;5189735;27;20050;-77
2022/10/11 06:45:34;;;;;;;26.00;13.52;;;;;;;11.89;100.00;99691.13;5190588;27;20412;-77
2022/10/11 06:48:01;;;;;;;26.92;12.27;;;;;;;12.04;100.00;99686.66;5191819;27;20408;-77
2022/10/11 06:50:27;;;;;;;24.17;13.52;;;;;;;12.12;100.00;99685.72;5190755;27;20049;-77
2022/10/11 06:52:54;;;;;;;27.63;12.65;;;;;;;12.18;100.00;99689.63;5183961;27;20045;-77
2022/10/11 06:55:20;;;;;;;29.35;12.65;;;;;;;12.26;100.00;99689.53;5182473;27;20052;-77
2022/10/11 06:57:48;;;;;;;27.65;12.32;;;;;;;12.38;100.00;99714.50;5191137;27;20052;-77
2022/10/11 07:00:16;;;;;;;20.42;11.45;;;;;;;12.42;100.00;99709.50;5190396;27;20046;-77
2022/10/11 07:02:42;;;;;;;25.13;11.07;;;;;;;12.37;100.00;99699.16;5190201;27;20050;-77
2022/10/11 07:05:09;;;;;;;23.67;12.27;;;;;;;12.52;100.00;99721.84;5189208;27;20050;-77
2022/10/11 07:07:36;;;;;;;22.92;11.27;;;;;;;12.68;100.00;99720.03;5179478;27;20046;-77
2022/10/11 07:10:03;;;;;;;24.65;11.68;;;;;;;12.58;100.00;99701.19;5169853;27;20054;-77
2022/10/11 07:12:30;;;;;;;22.48;11.88;;;;;;;12.65;100.00;99704.88;5168829;27;20051;-77
2022/10/11 07:15:00;;;;;;;21.85;11.07;;;;;;;12.72;100.00;99705.81;5170004;27;20133;-77
2022/10/11 07:17:27;;;;;;;20.98;11.02;;;;;;;12.78;100.00;99719.75;5188379;27;20535;-77
2022/10/11 07:19:53;;;;;;;24.70;11.85;;;;;;;12.83;100.00;99726.34;5190761;27;20098;-77
2022/10/11 07:22:20;;;;;;;22.23;10.45;;;;;;;12.88;100.00;99718.44;5183131;27;20047;-77
2022/10/11 07:24:47;;;;;;;29.40;11.82;;;;;;;12.96;100.00;99724.84;5177085;27;20057;-77
2022/10/11 07:27:14;;;;;;;29.35;11.43;;;;;;;12.89;100.00;99728.31;5177819;27;20047;-77
2022/10/11 07:29:41;;;;;;;25.23;11.80;;;;;;;12.94;100.00;99735.97;5169581;27;20046;-77
2022/10/11 07:32:09;;;;;;;22.27;10.93;;;;;;;13.05;100.00;99745.56;5183386;27;20050;-77
2022/10/11 07:34:35;;;;;;;24.65;11.50;;;;;;;13.13;100.00;99750.94;5190259;27;20056;-77
2022/10/11 07:37:02;;;;;;;23.77;11.48;;;;;;;13.10;100.00;99730.31;5177182;27;20125;-77
2022/10/11 07:39:30;;;;;;;22.33;11.45;;;;;;;13.06;100.00;99731.72;5176198;27;20176;-77
2022/10/11 07:41:56;;;;;;;24.35;11.00;;;;;;;13.05;100.00;99738.25;5181561;27;20058;-77
2022/10/11 07:44:23;;;;;;;28.95;12.30;;;;;;;13.16;100.00;99731.47;5189417;27;20034;-77
2022/10/11 07:46:50;;;;;;;22.88;11.95;;;;;;;13.15;100.00;99729.75;5182430;27;20046;-77
2022/10/11 07:49:18;;;;;;;28.05;11.52;;;;;;;13.22;100.00;99747.09;5189983;27;20046;-77
2022/10/11 07:51:45;;;;;;;26.13;11.32;;;;;;;13.17;100.00;99735.03;5175402;27;20112;-77
2022/10/11 07:54:12;;;;;;;33.53;12.40;;;;;;;13.38;100.00;99758.88;5174967;27;20038;-77
2022/10/11 07:56:39;;;;;;;22.77;10.60;;;;;;;13.31;100.00;99746.97;5166058;27;20400;-77
2022/10/11 07:59:06;;;;;;;20.50;9.68;;;;;;;13.39;100.00;99761.44;5165653;27;20042;-77
2022/10/11 08:01:33;;;;;;;23.15;10.93;;;;;;;13.32;100.00;99751.41;5175270;27;20499;-77
2022/10/11 08:04:00;;;;;;;22.10;10.90;;;;;;;13.21;100.00;99750.00;5175151;27;20047;-77
2022/10/11 08:06:31;;;;;;;24.83;10.73;;;;;;;13.28;100.00;99742.75;5173759;27;20412;-77
2022/10/11 08:08:59;;;;;;;23.05;10.13;;;;;;;13.37;100.00;99760.78;5175800;27;20415;-77
2022/10/11 08:11:28;;;;;;;17.67;9.40;;;;;;;13.26;100.00;99751.16;5167153;27;20385;-77
2022/10/11 08:13:55;;;;;;;22.67;9.50;;;;;;;13.29;100.00;99769.00;5162550;27;20465;-77
2022/10/11 08:16:22;;;;;;;28.02;11.45;;;;;;;13.20;100.00;99748.31;5165139;27;20123;-77
2022/10/11 08:18:48;;;;;;;26.65;10.70;;;;;;;13.18;100.00;99751.22;5154771;27;20057;-77
2022/10/11 08:21:18;;;;;;;18.67;10.02;;;;;;;13.38;100.00;99775.28;5154836;27;20046;-77
2022/10/11 08:23:46;;;;;;;16.10;9.33;;;;;;;13.33;100.00;99775.81;5153664;27;20134;-78
2022/10/11 08:26:13;;;;;;;19.90;9.25;;;;;;;13.25;100.00;99759.53;5164764;27;20294;-77
2022/10/11 08:28:39;;;;;;;17.42;9.88;;;;;;;13.22;100.00;99759.91;5159606;27;20047;-77
2022/10/11 08:31:06;;;;;;;24.63;9.38;;;;;;;13.24;100.00;99761.38;5163118;27;20069;-77
2022/10/11 08:33:33;;;;;;;22.42;9.75;;;;;;;13.32;100.00;99759.59;5173079;27;20068;-77
2022/10/11 08:36:04;;;;;;;17.77;9.82;;;;;;;13.37;100.00;99763.50;5164919;27;20043;-77
2022/10/11 08:38:31;;;;;;;16.80;9.38;;;;;;;13.62;100.00;99790.53;5153587;27;20058;-77
2022/10/11 08:41:00;;;;;;;17.75;9.73;;;;;;;13.71;100.00;99786.63;5166194;27;20038;-77
2022/10/11 08:43:40;;;;;;;17.10;8.70;;;;;;;13.57;100.00;99765.66;5174273;27;20086;-78
2022/10/11 08:46:08;;;;;;;;;;;;;;;13.78;100.00;99782.13;5175209;27;20496;-77
2022/10/11 08:48:36;;;;;;;15.75;9.23;;;;;;;13.67;100.00;99762.63;5174999;27;20340;-77
2022/10/11 08:51:09;;;;;;;18.25;10.00;;;;;;;13.77;100.00;99768.66;5156385;27;20536;-77
2022/10/11 08:53:45;;;;;;;18.55;9.05;;;;;;;13.84;100.00;99776.94;5165401;27;20048;-78
2022/10/11 08:56:16;;;;;;;18.83;10.25;;;;;;;13.72;100.00;99771.94;5163535;27;20473;-77
2022/10/11 08:58:47;;;;;;;22.45;9.73;;;;;;;13.77;100.00;99780.41;5158290;27;20493;-77
2022/10/11 09:01:18;;;;;;;21.17;9.80;;;;;;;13.92;100.00;99785.03;5153714;27;20437;-77
2022/10/11 09:03:46;;;;;;;17.92;8.50;;;;;;;13.86;100.00;99775.69;5160547;27;20532;-77
2022/10/11 09:06:24;;;;;;;20.40;9.48;;;;;;;13.98;100.00;99786.97;5169009;27;20042;-77
2022/10/11 09:09:06;;;;;;;21.63;9.63;;;;;;;14.00;100.00;99787.66;5153721;27;20135;-77
2022/10/11 09:11:48;;;;;;;18.55;8.85;;;;;;;14.10;100.00;99795.53;5153593;27;20129;-77
2022/10/11 09:14:27;;;;;;;20.55;9.10;;;;;;;13.95;100.00;99760.03;5152831;27;20073;-77
2022/10/11 09:17:02;;;;;;;16.33;8.73;;;;;;;13.91;100.00;99769.66;5162324;27;20200;-77
2022/10/11 09:20:03;;;;;;;13.25;8.35;;;;;;;14.02;100.00;99771.06;5163813;27;20043;-77
2022/10/11 09:22:41;;;;;;;15.77;8.57;;;;;;;14.17;100.00;99785.53;5167078;27;20046;-77
2022/10/11 09:25:21;;;;;;;17.20;8.15;;;;;;;14.14;100.00;99781.28;5174493;27;20090;-77
2022/10/11 09:28:00;;;;;;;22.17;8.23;;;;;;;14.15;100.00;99771.19;5174463;27;20506;-77
2022/10/11 09:30:26;;;;;;;14.90;8.13;;;;;;;14.13;100.00;99762.34;5173892;27;20238;-77
2022/10/11 09:33:03;;;;;;;19.25;8.88;;;;;;;14.21;100.00;99767.72;5161058;27;20275;-77
2022/10/11 09:35:36;;;;;;;22.85;9.10;;;;;;;14.23;100.00;99795.69;5159573;27;20047;-77
2022/10/11 09:38:05;;;;;;;22.30;9.73;;;;;;;14.40;100.00;99795.44;5169887;27;20161;-77
2022/10/11 09:40:43;;;;;;;15.57;8.82;;;;;;;14.20;100.00;99771.47;5152934;27;20047;-77
2022/10/11 09:43:12;;;;;;;18.63;8.73;;;;;;;14.11;100.00;99770.75;5152432;27;20125;-77
2022/10/11 09:45:43;;;;;;;20.45;8.82;;;;;;;14.29;100.00;99770.31;5169300;27;20465;-77
2022/10/11 09:48:15;;;;;;;23.30;8.50;;;;;;;14.41;100.00;99778.84;5166792;27;20061;-77
2022/10/11 09:50:43;;;;;;;14.52;8.00;;;;;;;14.30;100.00;99769.28;5165110;27;20038;-77
2022/10/11 09:53:09;;;;;;;18.35;8.60;;;;;;;14.38;100.00;99790.16;5152987;27;20566;-77
2022/10/11 09:55:41;;;;;;;17.65;9.23;;;;;;;14.35;100.00;99785.09;5152709;27;20082;-78
2022/10/11 09:58:28;;;;;;;15.32;8.20;;;;;;;14.42;100.00;99766.00;5153137;27;20050;-77
2022/10/11 10:00:59;;;;;;;15.27;7.38;;;;;;;14.37;100.00;99776.69;5168700;27;20356;-77
2022/10/11 10:03:29;;;;;;;15.98;8.20;;;;;;;14.30;100.00;99773.88;5157692;27;20474;-77
2022/10/11 10:06:06;;;;;;;13.02;8.43;;;;;;;14.38;100.00;99776.50;5150832;27;20051;-77
2022/10/11 10:08:32;;;;;;;19.65;8.70;;;;;;;14.33;100.00;99768.88;5152443;27;20133;-77
2022/10/11 10:11:02;;;;;;;17.95;8.52;;;;;;;14.41;100.00;99792.53;5164080;27;20042;-77
2022/10/11 10:13:40;;;;;;;12.73;7.55;;;;;;;14.48;100.00;99782.50;5172213;27;20050;-77
2022/10/11 10:16:10;;;;;;;20.75;8.65;;;;;;;14.64;100.00;99778.66;5166523;27;20137;-77
2022/10/11 10:18:42;;;;;;;17.98;8.07;;;;;;;14.78;100.00;99790.56;5170573;27;20053;-77
2022/10/11 10:21:14;;;;;;;13.20;7.95;;;;;;;14.57;100.00;99779.63;5157120;27;20053;-77
2022/10/11 10:23:42;;;;;;;20.83;7.68;;;;;;;14.50;100.00;99772.19;5157032;27;20042;-77
2022/10/11 10:26:12;;;;;;;12.73;8.25;;;;;;;14.56;100.00;99770.56;5152200;27;20076;-77
2022/10/11 10:28:55;;;;;;;17.98;8.02;;;;;;;14.84;100.00;99762.44;5152491;27;20050;-77
2022/10/11 10:31:24;;;;;;;15.35;7.75;;;;;;;15.12;100.00;99774.44;5152025;27;20049;-78
2022/10/11 10:33:54;;;;;;;15.47;7.50;;;;;;;15.22;100.00;99780.41;5170720;27;20138;-78
2022/10/11 10:36:26;;;;;;;14.53;7.33;;;;;;;15.42;100.00;99786.00;5167154;27;20288;-78
2022/10/11 10:38:59;;;;;;;13.93;6.75;;;;;;;15.34;100.00;99781.53;5168611;27;20037;-77
2022/10/11 10:41:25;;;;;;;13.27;7.63;;;;;;;15.21;100.00;99768.59;5172860;27;20536;-78
2022/10/11 10:43:56;;;;;;;13.98;7.70;;;;;;;15.34;100.00;99769.72;5171967;27;20135;-78
2022/10/11 10:46:40;;;;;;;16.23;6.78;;;;;;;15.51;100.00;99776.56;5172945;27;20065;-78
2022/10/11 10:49:13;;;;;;;13.07;7.75;;;;;;;15.34;100.00;99762.34;5169086;27;20129;-78
2022/10/11 10:51:51;;;;;;;13.93;6.65;;;;;;;15.47;100.00;99779.91;5174160;27;20059;-78
2022/10/11 10:54:32;;;;;;;21.17;6.90;;;;;;;15.44;100.00;99761.16;5164480;27;20054;-78
2022/10/11 10:57:01;;;;;;;17.38;7.88;;;;;;;15.46;100.00;99773.59;5163440;27;20038;-78
2022/10/11 10:59:53;;;;;;;11.80;7.95;;;;;;;15.36;100.00;99773.94;5172915;27;20054;-78
2022/10/11 11:02:23;;;;;;;14.32;6.80;;;;;;;15.17;100.00;99771.94;5161981;27;20133;-78
2022/10/11 11:05:00;;;;;;;12.90;6.28;;;;;;;15.24;100.00;99756.38;5158910;27;20472;-77
2022/10/11 11:07:33;;;;;;;12.20;6.80;;;;;;;15.48;100.00;99766.00;5161154;27;20053;-77
2022/10/11 11:10:04;;;;;;;11.68;6.15;;;;;;;15.67;100.00;99780.88;5158697;27;20460;-78
2022/10/11 11:12:44;;;;;;;12.30;6.53;;;;;;;15.65;99.61;99772.00;5163814;27;20057;-78
2022/10/11 11:15:18;;;;;;;13.57;6.95;;;;;;;15.56;99.56;99751.28;5167637;27;20403;-78
2022/10/11 11:17:59;;;;;;;13.82;7.13;;;;;;;15.78;100.00;99775.88;5164531;27;20038;-78
2022/10/11 11:20:38;;;;;;;10.85;6.13;;;;;;;15.77;98.39;99757.72;5163281;27;20061;-78
2022/10/11 11:23:12;;;;;;;13.23;6.38;;;;;;;15.71;99.45;99757.47;5163412;27;20050;-78
2022/10/11 11:25:46;;;;;;;11.57;5.88;;;;;;;15.97;97.71;99764.13;5166078;27;20134;-78
2022/10/11 11:28:32;;;;;;;18.08;6.88;;;;;;;15.98;97.16;99760.34;5155870;27;20053;-78
2022/10/11 11:31:07;;;;;;;13.75;6.22;;;;;;;16.03;96.03;99757.00;5174257;27;20050;-78
2022/10/11 11:33:43;;;;;;;14.75;6.63;;;;;;;16.20;94.25;99751.97;5168113;27;20130;-78
2022/10/11 11:36:13;;;;;;;12.65;6.07;;;;;;;16.42;93.12;99741.69;5166923;27;20052;-78
2022/10/11 11:38:42;;;;;;;;;;;;;;;16.68;91.57;99764.72;5176588;27;20056;-78
2022/10/11 11:41:15;;;;;;;8.15;4.78;;;;;;;16.71;90.77;99753.31;5174887;27;19922;-78
2022/10/11 11:43:55;;;;;;;13.27;5.65;;;;;;;16.88;91.58;99762.03;5165493;27;20038;-78
2022/10/11 11:46:27;;;;;;;10.85;5.85;;;;;;;16.61;91.38;99734.53;5165864;27;20043;-78
2022/10/11 11:48:58;;;;;;;19.15;5.93;;;;;;;16.54;90.99;99756.47;5174873;27;20137;-79
2022/10/11 11:51:30;;;;;;;13.48;6.22;;;;;;;16.28;94.58;99738.91;5162577;27;20046;-79
2022/10/11 11:54:07;;;;;;;13.02;5.65;;;;;;;16.36;94.44;99734.28;5154815;27;20050;-79
2022/10/11 11:56:54;;;;;;;9.32;5.20;;;;;;;16.32;93.18;99744.84;5166356;27;20071;-78
2022/10/11 11:59:26;;;;;;;11.70;5.35;;;;;;;16.33;91.78;99741.03;5167456;27;20121;-78
2022/10/11 12:02:08;;;;;;;12.25;5.45;;;;;;;16.50;93.57;99757.97;5173369;27;20038;-78
2022/10/11 12:04:41;;;;;;;13.68;5.63;;;;;;;16.20;94.12;99741.88;5157596;27;20053;-78
2022/10/11 12:07:10;;;;;;;11.45;5.43;;;;;;;16.37;93.78;99753.28;5163452;27;20497;-78
2022/10/11 12:09:40;;;;;;;21.33;6.32;;;;;;;16.20;93.52;99741.00;5155055;27;20046;-78
2022/10/11 12:12:08;;;;;;;21.83;5.82;;;;;;;16.11;93.67;99748.59;5160588;27;20051;-78
2022/10/11 12:14:38;;;;;;;14.23;5.95;;;;;;;16.14;95.32;99758.28;5160058;27;20081;-78
2022/10/11 12:17:14;;;;;;;13.27;6.13;;;;;;;16.08;94.35;99743.53;5165717;27;20046;-77
2022/10/11 12:19:43;;;;;;;18.70;7.90;;;;;;;16.01;96.41;99743.50;5167008;27;20050;-78
2022/10/11 12:22:19;;;;;;;17.35;6.15;;;;;;;16.03;94.55;99737.81;5172323;27;20042;-78
2022/10/11 12:24:54;;;;;;;17.88;5.93;;;;;;;15.95;95.97;99738.84;5166534;27;20464;-78
2022/10/11 12:27:38;;;;;;;10.77;5.70;;;;;;;16.00;94.06;99746.44;5167683;27;20081;-78
2022/10/11 12:30:28;;;;;;;11.77;6.03;;;;;;;15.94;95.90;99742.63;5175647;27;20050;-78
2022/10/11 12:33:06;;;;;;;11.23;5.75;;;;;;;15.97;93.32;99733.97;5170335;27;20465;-78
2022/10/11 12:35:55;;;;;;;13.68;6.60;;;;;;;15.82;94.77;99744.28;5168976;27;20056;-78
2022/10/11 12:38:23;;;;;;;15.40;6.53;;;;;;;15.73;96.28;99727.13;5173588;27;20137;-78
2022/10/11 12:40:52;;;;;;;13.15;6.25;;;;;;;15.82;96.16;99731.44;5166421;27;20375;-77
2022/10/11 12:43:35;;;;;;;13.25;5.97;;;;;;;15.73;95.46;99744.44;5168923;27;20039;-78
2022/10/11 12:46:38;;;;;;;14.07;5.68;;;;;;;15.75;95.99;99752.44;5163353;27;20051;-78
2022/10/11 12:49:31;;;;;;;12.32;5.30;;;;;;;15.69;94.98;99737.66;5138965;27;20067;-78
2022/10/11 12:52:00;;;;;;;16.65;5.88;;;;;;;15.51;96.34;99724.50;5170560;27;20057;-77
2022/10/11 12:54:46;;;;;;;10.73;6.03;;;;;;;15.61;96.43;99735.09;5164587;27;20038;-76
2022/10/11 12:57:37;;;;;;;14.23;6.40;;;;;;;15.54;98.67;99734.22;5175879;27;20552;-77
2022/10/11 13:00:16;;;;;;;14.70;6.25;;;;;;;15.64;97.58;99722.88;5176571;27;20050;-78
2022/10/11 13:02:44;;;;;;;22.70;5.87;;;;;;;15.73;96.35;99721.63;5175794;27;20047;-77
2022/10/11 13:05:21;;;;;;;13.38;6.63;;;;;;;15.63;97.44;99712.97;5174684;27;20296;-77
2022/10/11 13:07:49;;;;;;;10.70;6.28;;;;;;;15.62;96.90;99712.09;5166863;27;20455;-77
2022/10/11 13:10:19;;;;;;;11.15;5.93;;;;;;;15.79;98.78;99734.56;5166001;27;20121;-77
2022/10/11 13:12:48;;;;;;;15.77;6.18;;;;;;;15.88;96.86;99710.53;5175861;27;20045;-77
2022/10/11 13:15:20;;;;;;;13.20;5.57;;;;;;;16.05;94.60;99725.59;5176237;27;20148;-77
2022/10/11 13:17:52;;;;;;;11.27;6.15;;;;;;;15.99;93.69;99707.22;5175563;27;20057;-77
2022/10/11 13:20:24;;;;;;;16.20;6.30;;;;;;;16.11;94.43;99726.66;5176624;27;20530;-78
2022/10/11 13:22:52;;;;;;;13.73;6.25;;;;;;;16.16;93.20;99737.84;5175006;27;20042;-77
2022/10/11 13:25:22;;;;;;;13.10;5.78;;;;;;;16.14;92.33;99728.13;5155453;27;20080;-78
2022/10/11 13:27:51;;;;;;;12.40;6.13;;;;;;;16.00;93.49;99735.47;5172094;27;20042;-77
2022/10/11 13:30:19;;;;;;;22.85;6.65;;;;;;;15.72;93.89;99715.31;5173035;27;20039;-78
2022/10/11 13:32:46;;;;;;;15.15;6.18;;;;;;;15.90;95.59;99722.16;5166757;27;20146;-77
2022/10/11 13:35:19;;;;;;;17.88;7.50;;;;;;;16.03;93.88;99724.09;5175871;27;20234;-77
2022/10/11 13:37:48;;;;;;;17.45;6.32;;;;;;;15.75;94.35;99712.16;5175674;27;20046;-80
2022/10/11 13:40:16;;;;;;;16.37;7.00;;;;;;;15.77;94.93;99722.09;5158079;27;20126;-79
2022/10/11 13:42:44;;;;;;;12.02;6.07;;;;;;;15.90;95.40;99706.56;5175151;27;20669;-79
2022/10/11 13:45:13;;;;;;;17.60;6.65;;;;;;;15.81;95.03;99716.03;5175342;27;20125;-78
2022/10/11 13:47:40;;;;;;;14.93;5.78;;;;;;;15.72;95.94;99707.09;5175170;27;20061;-79
2022/10/11 13:50:19;;;;;;;11.65;5.95;;;;;;;15.72;96.23;99723.53;5175640;27;20555;-79
2022/10/11 13:52:56;;;;;;;11.38;6.30;;;;;;;15.47;96.58;99719.63;5163653;27;20069;-79
2022/10/11 13:55:25;;;;;;;11.82;6.22;;;;;;;15.39;98.36;99712.44;5171887;27;20038;-79
2022/10/11 13:57:53;;;;;;;11.88;6.00;;;;;;;15.42;98.93;99720.25;5166492;27;20509;-78
2022/10/11 14:00:26;;;;;;;12.60;5.68;;;;;;;15.50;99.01;99714.59;5154749;27;20070;-78
2022/10/11 14:02:58;;;;;;;11.90;7.05;;;;;;;15.48;100.00;99722.19;5157208;27;20038;-78
2022/10/11 14:05:32;;;;;;;9.77;5.43;;;;;;;15.37;99.42;99701.69;5175409;27;20141;-78
2022/10/11 14:08:03;;;;;;;16.30;5.75;;;;;;;15.28;98.46;99710.25;5165954;27;20094;-78
2022/10/11 14:10:30;;;;;;;18.58;6.38;;;;;;;15.14;100.00;99701.97;5173131;27;20034;-80
2022/10/11 14:13:00;;;;;;;17.55;6.22;;;;;;;15.11;100.00;99705.09;5162478;27;20093;-78
2022/10/11 14:15:30;;;;;;;13.23;6.07;;;;;;;15.19;100.00;99720.53;5163609;27;20129;-79
2022/10/11 14:17:57;;;;;;;;;;;;;;;15.26;100.00;99726.06;5169068;27;20042;-77
2022/10/11 14:20:26;;;;;;;10.45;6.03;;;;;;;15.08;100.00;99713.72;5162549;27;19919;-79
2022/10/11 14:22:53;;;;;;;14.65;5.53;;;;;;;15.15;100.00;99731.06;5159550;27;20121;-79
2022/10/11 14:25:21;;;;;;;17.40;5.90;;;;;;;15.06;100.00;99706.78;5150298;27;20497;-79
2022/10/11 14:27:48;;;;;;;14.02;5.47;;;;;;;15.10;100.00;99717.13;5151213;27;20047;-79
2022/10/11 14:30:18;;;;;;;16.48;6.60;;;;;;;15.24;100.00;99717.22;5155899;27;20517;-79
2022/10/11 14:32:46;;;;;;;13.75;5.82;;;;;;;15.17;100.00;99704.28;5148894;27;20060;-79
2022/10/11 14:35:17;;;;;;;14.15;5.75;;;;;;;15.23;100.00;99702.66;5156451;27;20064;-79
2022/10/11 14:37:45;;;;;;;12.50;5.65;;;;;;;15.35;100.00;99719.38;5161575;27;20137;-79
2022/10/11 14:40:15;;;;;;;9.40;5.07;;;;;;;15.29;100.00;99721.00;5155104;27;20058;-79
2022/10/11 14:42:43;;;;;;;11.18;5.28;;;;;;;15.20;100.00;99708.53;5151424;27;20089;-79
2022/10/11 14:45:10;;;;;;;11.13;5.72;;;;;;;15.28;100.00;99708.38;5171256;27;20046;-79
2022/10/11 14:47:37;;;;;;;14.77;5.57;;;;;;;15.32;100.00;99697.84;5172072;27;20038;-79
2022/10/11 14:50:29;;;;;;;14.25;5.50;;;;;;;15.39;100.00;99732.44;5162526;27;20137;-79
2022/10/11 14:52:55;;;;;;;13.02;5.35;;;;;;;15.23;100.00;99705.38;5158972;27;20038;-79
2022/10/11 14:55:23;;;;;;;11.50;5.47;;;;;;;15.31;100.00;99723.53;5160077;27;20480;-79
2022/10/11 14:57:51;;;;;;;15.77;5.65;;;;;;;15.19;100.00;99702.22;5169496;27;20058;-79
2022/10/11 15:00:21;;;;;;;18.38;6.35;;;;;;;15.17;100.00;99708.94;5166829;27;20062;-79
2022/10/11 15:02:48;;;;;;;13.93;5.18;;;;;;;15.28;100.00;99711.13;5171263;27;20200;-79
2022/10/11 15:05:17;;;;;;;7.88;4.57;;;;;;;15.17;100.00;99718.00;5161241;27;20054;-79
2022/10/11 15:07:44;;;;;;;15.27;5.68;;;;;;;15.10;100.00;99695.22;5176573;27;20054;-79
2022/10/11 15:10:19;;;;;;;10.40;4.90;;;;;;;15.26;100.00;99707.72;5168431;27;20080;-79
2022/10/11 15:12:46;;;;;;;8.60;4.90;;;;;;;15.32;100.00;99706.06;5172944;27;20133;-79
2022/10/11 15:15:19;;;;;;;15.60;5.22;;;;;;;15.20;100.00;99698.44;5173991;27;20050;-79
2022/10/11 15:17:47;;;;;;;11.63;5.35;;;;;;;15.14;100.00;99698.38;5173377;27;20050;-79
2022/10/11 15:20:20;;;;;;;18.58;5.38;;;;;;;15.26;100.00;99704.16;5159712;27;20134;-79
2022/10/11 15:22:47;;;;;;;12.40;4.72;;;;;;;15.18;100.00;99703.25;5160879;27;20035;-79
2022/10/11 15:25:13;;;;;;;10.98;4.97;;;;;;;15.07;100.00;99708.44;5154163;27;20054;-79
2022/10/11 15:27:41;;;;;;;11.70;4.97;;;;;;;15.03;100.00;99719.81;5153970;27;20762;-79
2022/10/11 15:30:16;;;;;;;12.57;6.55;;;;;;;14.88;100.00;99707.28;5163508;27;20077;-79
2022/10/11 15:32:43;;;;;;;11.73;5.60;;;;;;;14.77;100.00;99692.25;5152128;27;20067;-79
2022/10/11 15:35:10;;;;;;;14.18;4.97;;;;;;;14.81;100.00;99701.75;5152980;27;20043;-79
2022/10/11 15:37:36;;;;;;;12.43;6.28;;;;;;;14.84;100.00;99704.94;5160922;27;20507;-79
2022/10/11 15:40:10;;;;;;;9.98;5.53;;;;;;;14.75;100.00;99697.91;5165511;27;20089;-79
2022/10/11 15:42:37;;;;;;;16.27;6.43;;;;;;;14.78;100.00;99707.63;5173658;27;20121;-79
2022/10/11 15:45:04;;;;;;;16.20;6.53;;;;;;;14.66;100.00;99694.50;5171159;27;20405;-79
2022/10/11 15:47:32;;;;;;;16.05;5.72;;;;;;;14.66;100.00;99693.63;5161579;27;20122;-79
2022/10/11 15:49:58;;;;;;;17.13;6.18;;;;;;;14.50;100.00;99684.66;5161319;27;20436;-79
2022/10/11 15:52:25;;;;;;;15.27;6.57;;;;;;;14.45;100.00;99697.22;5172729;27;20599;-79
2022/10/11 15:54:52;;;;;;;15.70;6.00;;;;;;;14.51;100.00;99710.97;5173769;27;20046;-79
2022/10/11 15:57:18;;;;;;;12.60;6.38;;;;;;;14.33;100.00;99692.31;5173450;27;20556;-79
2022/10/11 15:59:45;;;;;;;11.88;5.85;;;;;;;14.34;100.00;99683.03;5170611;27;20480;-79
2022/10/11 16:02:13;;;;;;;14.70;6.55;;;;;;;14.34;100.00;99688.50;5172981;27;20041;-79
2022/10/11 16:04:42;;;;;;;13.43;6.47;;;;;;;14.40;100.00;99713.38;5171916;27;20050;-79
2022/10/11 16:07:09;;;;;;;14.43;6.17;;;;;;;14.27;100.00;99705.91;5161441;27;20090;-79
2022/10/11 16:09:36;;;;;;;11.38;7.03;;;;;;;14.22;100.00;99695.53;5152711;27;20042;-79
2022/10/11 16:12:02;;;;;;;16.65;5.90;;;;;;;14.20;100.00;99702.28;5151994;27;20068;-79
2022/10/11 16:14:29;;;;;;;12.23;6.00;;;;;;;14.06;100.00;99688.47;5160324;27;20069;-79
2022/10/11 16:16:55;;;;;;;19.65;7.03;;;;;;;13.98;100.00;99691.31;5164708;27;20046;-79
2022/10/11 16:19:22;;;;;;;21.20;8.13;;;;;;;13.88;100.00;99677.97;5172944;27;20390;-79
2022/10/11 16:21:50;;;;;;;18.88;7.25;;;;;;;13.85;100.00;99681.09;5171409;27;20213;-79
2022/10/11 16:24:16;;;;;;;17.50;6.80;;;;;;;13.91;100.00;99684.91;5151593;27;20068;-79
2022/10/11 16:26:43;;;;;;;15.40;7.20;;;;;;;13.84;100.00;99676.66;5152526;27;20331;-79
2022/10/11 16:29:09;;;;;;;13.40;6.25;;;;;;;13.88;100.00;99688.91;5159419;27;20064;-79
2022/10/11 16:31:36;;;;;;;19.25;7.50;;;;;;;13.81;100.00;99685.25;5162919;27;20129;-79
2022/10/11 16:34:03;;;;;;;15.35;6.40;;;;;;;13.88;100.00;99704.44;5159977;27;20052;-79
2022/10/11 16:36:34;;;;;;;20.38;7.57;;;;;;;13.76;100.00;99687.69;5166050;27;20049;-79
2022/10/11 16:39:06;;;;;;;12.18;7.47;;;;;;;13.78;100.00;99716.53;5173032;27;20064;-79
2022/10/11 16:41:33;;;;;;;12.48;7.47;;;;;;;13.52;100.00;99695.22;5173706;27;20047;-79
2022/10/11 16:43:59;;;;;;;19.92;6.72;;;;;;;13.63;100.00;99707.53;5163393;27;20133;-79
2022/10/11 16:46:26;;;;;;;13.90;6.65;;;;;;;13.49;100.00;99697.47;5158587;27;20050;-79
2022/10/11 16:48:54;;;;;;;17.95;8.60;;;;;;;13.53;100.00;99712.44;5158658;27;20127;-79
2022/10/11 16:51:22;;;;;;;15.98;7.18;;;;;;;13.41;100.00;99702.03;5163727;27;20053;-79
2022/10/11 16:53:49;;;;;;;15.98;7.00;;;;;;;13.26;100.00;99707.47;5171532;27;20218;-79
2022/10/11 16:56:21;;;;;;;12.60;6.18;;;;;;;13.35;100.00;99721.88;5162965;27;20030;-78
2022/10/11 16:58:48;;;;;;;19.13;8.20;;;;;;;13.21;100.00;99707.16;5162819;27;20365;-78
2022/10/11 17:01:15;;;;;;;14.52;7.47;;;;;;;13.19;100.00;99719.34;5164363;27;20046;-78
2022/10/11 17:03:41;;;;;;;14.85;7.15;;;;;;;13.02;100.00;99713.19;5164839;27;20039;-79
2022/10/11 17:06:08;;;;;;;18.45;6.97;;;;;;;12.88;100.00;99726.63;5161364;27;20181;-79
2022/10/11 17:08:35;;;;;;;15.38;7.38;;;;;;;12.73;100.00;99698.47;5172226;27;20396;-79
2022/10/11 17:11:02;;;;;;;18.27;7.82;;;;;;;12.89;100.00;99728.31;5159694;27;20681;-79
2022/10/11 17:13:30;;;;;;;23.80;7.75;;;;;;;12.65;100.00;99693.13;5158880;27;20049;-79
2022/10/11 17:15:57;;;;;;;14.23;6.57;;;;;;;12.58;100.00;99701.19;5163252;27;20042;-78
2022/10/11 17:18:24;;;;;;;16.92;6.93;;;;;;;12.55;100.00;99712.47;5162054;27;20132;-78
